KTYR/TYR METAR and TAF weather

Enter ICAO airport designator
Station Type Date Time Source
KTYR METAR 2024/04/18 07:53 UTC NOAA

KTYR 180753Z AUTO 17007KT 10SM BKN021 OVC026 22/19 A2992 RMK AO2 SLP122 T02220194


Station Type Date Time Source
KTYR Decoded METAR 2024/04/18 07:53 UTC NOAA

TYLER POUNDS FIELDS, TX, United States (KTYR) 32-21N 095-24W 165M
Apr 18, 2024 - 03:53 AM EDT / 2024.04.18 0753 UTC
Wind: from the S (170 degrees) at 8 MPH (7 KT):0
Visibility: 10 mile(s):0
Sky conditions: overcast
Temperature: 72.0 F (22.2 C)
Dew Point: 66.9 F (19.4 C)
Relative Humidity: 84%
Pressure (altimeter): 29.92 in. Hg (1013 hPa)
ob: KTYR 180753Z AUTO 17007KT 10SM BKN021 OVC026 22/19 A2992 RMK AO2 SLP122 T02220194
cycle: 8

Station Type Date Time Source
KTYR TAF 2024/04/18 06:30 UTC NOAA